sensor_id;sensor_type;location;lat;lon;timestamp;P1;durP1;ratioP1;P2;durP2;ratioP2
50853;SDS011;44154;45.506;-122.806;2023-04-03T00:00:32;4.60;;;0.30;;
50853;SDS011;44154;45.506;-122.806;2023-04-03T00:02:58;0.85;;;0.40;;
50853;SDS011;44154;45.506;-122.806;2023-04-03T00:05:24;1.90;;;0.47;;
50853;SDS011;44154;45.506;-122.806;2023-04-03T00:07:50;3.25;;;0.30;;
50853;SDS011;44154;45.506;-122.806;2023-04-03T00:10:16;2.67;;;0.30;;
50853;SDS011;44154;45.506;-122.806;2023-04-03T00:12:43;2.38;;;0.30;;
50853;SDS011;44154;45.506;-122.806;2023-04-03T00:15:10;1.35;;;0.30;;
50853;SDS011;44154;45.506;-122.806;2023-04-03T00:17:36;1.52;;;0.30;;
50853;SDS011;44154;45.506;-122.806;2023-04-03T00:20:03;1.67;;;0.30;;
50853;SDS011;44154;45.506;-122.806;2023-04-03T00:22:30;2.90;;;0.63;;
50853;SDS011;44154;45.506;-122.806;2023-04-03T00:24:57;3.15;;;0.38;;
50853;SDS011;44154;45.506;-122.806;2023-04-03T00:27:23;2.13;;;0.30;;
50853;SDS011;44154;45.506;-122.806;2023-04-03T00:29:49;2.63;;;0.40;;
50853;SDS011;44154;45.506;-122.806;2023-04-03T00:32:15;1.05;;;0.30;;
50853;SDS011;44154;45.506;-122.806;2023-04-03T00:34:41;1.73;;;0.30;;
50853;SDS011;44154;45.506;-122.806;2023-04-03T00:37:07;1.42;;;0.20;;
50853;SDS011;44154;45.506;-122.806;2023-04-03T00:39:34;0.90;;;0.30;;
50853;SDS011;44154;45.506;-122.806;2023-04-03T00:42:00;0.50;;;0.15;;
50853;SDS011;44154;45.506;-122.806;2023-04-03T00:46:58;2.83;;;0.30;;
50853;SDS011;44154;45.506;-122.806;2023-04-03T00:49:25;1.50;;;0.32;;
50853;SDS011;44154;45.506;-122.806;2023-04-03T00:51:53;1.75;;;0.30;;
50853;SDS011;44154;45.506;-122.806;2023-04-03T00:54:20;1.83;;;0.35;;
50853;SDS011;44154;45.506;-122.806;2023-04-03T00:56:47;1.85;;;0.30;;
50853;SDS011;44154;45.506;-122.806;2023-04-03T00:59:26;2.15;;;0.30;;
50853;SDS011;44154;45.506;-122.806;2023-04-03T01:02:00;0.65;;;0.20;;
50853;SDS011;44154;45.506;-122.806;2023-04-03T01:04:27;4.13;;;0.25;;
50853;SDS011;44154;45.506;-122.806;2023-04-03T01:07:00;1.50;;;0.50;;
50853;SDS011;44154;45.506;-122.806;2023-04-03T01:09:32;3.25;;;0.70;;
50853;SDS011;44154;45.506;-122.806;2023-04-03T01:12:21;5.18;;;1.27;;
50853;SDS011;44154;45.506;-122.806;2023-04-03T01:14:52;2.88;;;0.60;;
50853;SDS011;44154;45.506;-122.806;2023-04-03T01:25:22;3.72;;;0.55;;
50853;SDS011;44154;45.506;-122.806;2023-04-03T01:27:49;3.08;;;0.70;;
50853;SDS011;44154;45.506;-122.806;2023-04-03T01:30:16;6.93;;;0.88;;
50853;SDS011;44154;45.506;-122.806;2023-04-03T01:32:45;7.10;;;0.60;;
50853;SDS011;44154;45.506;-122.806;2023-04-03T01:35:12;4.00;;;0.52;;
50853;SDS011;44154;45.506;-122.806;2023-04-03T01:37:38;1.92;;;0.70;;
50853;SDS011;44154;45.506;-122.806;2023-04-03T01:40:05;3.08;;;0.70;;
50853;SDS011;44154;45.506;-122.806;2023-04-03T01:42:32;2.67;;;0.60;;
50853;SDS011;44154;45.506;-122.806;2023-04-03T01:44:58;1.75;;;0.40;;
50853;SDS011;44154;45.506;-122.806;2023-04-03T01:47:24;1.42;;;0.40;;
50853;SDS011;44154;45.506;-122.806;2023-04-03T01:49:50;3.30;;;0.50;;
50853;SDS011;44154;45.506;-122.806;2023-04-03T01:52:16;2.17;;;0.50;;
50853;SDS011;44154;45.506;-122.806;2023-04-03T01:54:42;2.97;;;0.60;;
50853;SDS011;44154;45.506;-122.806;2023-04-03T01:57:08;3.67;;;0.65;;
50853;SDS011;44154;45.506;-122.806;2023-04-03T01:59:35;2.13;;;0.60;;
50853;SDS011;44154;45.506;-122.806;2023-04-03T02:02:01;2.47;;;0.40;;
50853;SDS011;44154;45.506;-122.806;2023-04-03T02:04:27;1.20;;;0.30;;
50853;SDS011;44154;45.506;-122.806;2023-04-03T02:06:53;5.85;;;0.82;;
50853;SDS011;44154;45.506;-122.806;2023-04-03T02:09:20;2.72;;;0.45;;
50853;SDS011;44154;45.506;-122.806;2023-04-03T02:11:46;1.20;;;0.40;;
50853;SDS011;44154;45.506;-122.806;2023-04-03T02:14:12;2.08;;;0.50;;
50853;SDS011;44154;45.506;-122.806;2023-04-03T02:16:38;3.15;;;0.80;;
50853;SDS011;44154;45.506;-122.806;2023-04-03T02:19:05;2.72;;;0.70;;
50853;SDS011;44154;45.506;-122.806;2023-04-03T02:21:31;3.63;;;0.80;;
50853;SDS011;44154;45.506;-122.806;2023-04-03T02:23:57;2.90;;;0.70;;
50853;SDS011;44154;45.506;-122.806;2023-04-03T02:26:23;2.08;;;0.73;;
50853;SDS011;44154;45.506;-122.806;2023-04-03T02:28:50;2.65;;;0.60;;
50853;SDS011;44154;45.506;-122.806;2023-04-03T02:31:16;4.10;;;0.75;;
50853;SDS011;44154;45.506;-122.806;2023-04-03T02:33:42;1.73;;;0.50;;
50853;SDS011;44154;45.506;-122.806;2023-04-03T02:36:09;1.95;;;0.40;;
50853;SDS011;44154;45.506;-122.806;2023-04-03T02:38:35;3.25;;;0.40;;
50853;SDS011;44154;45.506;-122.806;2023-04-03T02:41:05;6.90;;;0.75;;
50853;SDS011;44154;45.506;-122.806;2023-04-03T02:43:33;5.05;;;0.50;;
50853;SDS011;44154;45.506;-122.806;2023-04-03T02:46:00;2.28;;;0.50;;
50853;SDS011;44154;45.506;-122.806;2023-04-03T02:48:26;1.35;;;0.30;;
50853;SDS011;44154;45.506;-122.806;2023-04-03T02:50:53;3.65;;;0.45;;
50853;SDS011;44154;45.506;-122.806;2023-04-03T02:53:19;2.33;;;0.60;;
50853;SDS011;44154;45.506;-122.806;2023-04-03T02:55:46;3.90;;;0.40;;
50853;SDS011;44154;45.506;-122.806;2023-04-03T02:58:12;1.95;;;0.60;;
50853;SDS011;44154;45.506;-122.806;2023-04-03T03:00:38;4.25;;;0.60;;
50853;SDS011;44154;45.506;-122.806;2023-04-03T03:03:04;2.20;;;0.50;;
50853;SDS011;44154;45.506;-122.806;2023-04-03T03:05:31;3.38;;;0.80;;
50853;SDS011;44154;45.506;-122.806;2023-04-03T03:07:57;2.88;;;0.77;;
50853;SDS011;44154;45.506;-122.806;2023-04-03T03:10:23;2.33;;;0.50;;
50853;SDS011;44154;45.506;-122.806;2023-04-03T03:12:50;1.67;;;0.40;;
50853;SDS011;44154;45.506;-122.806;2023-04-03T03:15:16;1.85;;;0.77;;
50853;SDS011;44154;45.506;-122.806;2023-04-03T03:17:44;1.30;;;0.45;;
50853;SDS011;44154;45.506;-122.806;2023-04-03T03:20:11;3.42;;;0.70;;
50853;SDS011;44154;45.506;-122.806;2023-04-03T03:22:40;2.67;;;0.82;;
50853;SDS011;44154;45.506;-122.806;2023-04-03T03:25:06;1.55;;;0.50;;
50853;SDS011;44154;45.506;-122.806;2023-04-03T03:27:32;1.75;;;0.40;;
50853;SDS011;44154;45.506;-122.806;2023-04-03T03:29:59;1.35;;;0.50;;
50853;SDS011;44154;45.506;-122.806;2023-04-03T03:32:25;3.75;;;0.68;;
50853;SDS011;44154;45.506;-122.806;2023-04-03T03:34:51;3.72;;;0.88;;
50853;SDS011;44154;45.506;-122.806;2023-04-03T03:37:17;2.30;;;0.60;;
50853;SDS011;44154;45.506;-122.806;2023-04-03T03:39:43;3.83;;;0.55;;
50853;SDS011;44154;45.506;-122.806;2023-04-03T03:42:09;2.30;;;0.38;;
50853;SDS011;44154;45.506;-122.806;2023-04-03T03:44:36;1.75;;;0.52;;
50853;SDS011;44154;45.506;-122.806;2023-04-03T03:47:02;1.65;;;0.40;;
50853;SDS011;44154;45.506;-122.806;2023-04-03T03:49:28;3.90;;;0.63;;
50853;SDS011;44154;45.506;-122.806;2023-04-03T03:51:55;1.20;;;0.43;;
50853;SDS011;44154;45.506;-122.806;2023-04-03T03:54:21;2.35;;;0.40;;
50853;SDS011;44154;45.506;-122.806;2023-04-03T03:56:47;1.58;;;0.63;;
50853;SDS011;44154;45.506;-122.806;2023-04-03T03:59:13;1.67;;;0.50;;
50853;SDS011;44154;45.506;-122.806;2023-04-03T04:01:39;1.77;;;0.52;;
50853;SDS011;44154;45.506;-122.806;2023-04-03T04:04:05;2.33;;;0.40;;
50853;SDS011;44154;45.506;-122.806;2023-04-03T04:06:31;2.60;;;0.60;;
50853;SDS011;44154;45.506;-122.806;2023-04-03T04:08:57;2.22;;;0.70;;
50853;SDS011;44154;45.506;-122.806;2023-04-03T04:11:24;1.90;;;0.57;;
50853;SDS011;44154;45.506;-122.806;2023-04-03T04:13:50;2.75;;;0.65;;
50853;SDS011;44154;45.506;-122.806;2023-04-03T04:16:16;2.70;;;0.60;;
50853;SDS011;44154;45.506;-122.806;2023-04-03T04:18:42;1.45;;;0.68;;
50853;SDS011;44154;45.506;-122.806;2023-04-03T04:21:08;3.05;;;0.63;;
50853;SDS011;44154;45.506;-122.806;2023-04-03T04:23:34;1.60;;;0.60;;
50853;SDS011;44154;45.506;-122.806;2023-04-03T04:26:00;2.00;;;0.68;;
50853;SDS011;44154;45.506;-122.806;2023-04-03T04:28:26;1.45;;;0.68;;
50853;SDS011;44154;45.506;-122.806;2023-04-03T04:30:53;0.95;;;0.40;;
50853;SDS011;44154;45.506;-122.806;2023-04-03T04:33:19;0.90;;;0.47;;
50853;SDS011;44154;45.506;-122.806;2023-04-03T04:35:46;0.98;;;0.60;;
50853;SDS011;44154;45.506;-122.806;2023-04-03T04:38:13;0.65;;;0.38;;
50853;SDS011;44154;45.506;-122.806;2023-04-03T04:40:39;1.63;;;0.75;;
50853;SDS011;44154;45.506;-122.806;2023-04-03T04:43:06;1.85;;;0.60;;
50853;SDS011;44154;45.506;-122.806;2023-04-03T04:45:32;1.10;;;0.60;;
50853;SDS011;44154;45.506;-122.806;2023-04-03T04:47:58;1.58;;;0.40;;
50853;SDS011;44154;45.506;-122.806;2023-04-03T04:50:25;0.95;;;0.40;;
50853;SDS011;44154;45.506;-122.806;2023-04-03T04:52:51;2.00;;;0.50;;
50853;SDS011;44154;45.506;-122.806;2023-04-03T04:55:17;2.40;;;0.60;;
50853;SDS011;44154;45.506;-122.806;2023-04-03T04:57:43;1.10;;;0.60;;
50853;SDS011;44154;45.506;-122.806;2023-04-03T05:00:09;1.45;;;0.68;;
50853;SDS011;44154;45.506;-122.806;2023-04-03T05:02:36;1.35;;;0.52;;
50853;SDS011;44154;45.506;-122.806;2023-04-03T05:05:02;2.25;;;0.68;;
50853;SDS011;44154;45.506;-122.806;2023-04-03T05:07:29;1.00;;;0.80;;
50853;SDS011;44154;45.506;-122.806;2023-04-03T05:09:55;1.40;;;0.70;;
50853;SDS011;44154;45.506;-122.806;2023-04-03T05:12:21;1.60;;;0.80;;
50853;SDS011;44154;45.506;-122.806;2023-04-03T05:14:47;1.33;;;0.65;;
50853;SDS011;44154;45.506;-122.806;2023-04-03T05:17:13;1.50;;;0.50;;
50853;SDS011;44154;45.506;-122.806;2023-04-03T05:19:39;1.80;;;0.60;;
50853;SDS011;44154;45.506;-122.806;2023-04-03T05:22:06;0.70;;;0.40;;
50853;SDS011;44154;45.506;-122.806;2023-04-03T05:24:32;1.05;;;0.50;;
50853;SDS011;44154;45.506;-122.806;2023-04-03T05:26:58;1.30;;;0.50;;
50853;SDS011;44154;45.506;-122.806;2023-04-03T05:29:24;1.63;;;0.60;;
50853;SDS011;44154;45.506;-122.806;2023-04-03T05:31:51;2.25;;;0.60;;
50853;SDS011;44154;45.506;-122.806;2023-04-03T05:34:17;2.78;;;0.68;;
50853;SDS011;44154;45.506;-122.806;2023-04-03T05:36:43;0.95;;;0.57;;
50853;SDS011;44154;45.506;-122.806;2023-04-03T05:39:09;2.15;;;0.80;;
50853;SDS011;44154;45.506;-122.806;2023-04-03T05:41:35;2.08;;;0.80;;
50853;SDS011;44154;45.506;-122.806;2023-04-03T05:44:01;2.38;;;0.90;;
50853;SDS011;44154;45.506;-122.806;2023-04-03T05:46:28;1.88;;;0.75;;
50853;SDS011;44154;45.506;-122.806;2023-04-03T05:48:55;2.17;;;0.80;;
50853;SDS011;44154;45.506;-122.806;2023-04-03T05:51:25;2.20;;;0.73;;
50853;SDS011;44154;45.506;-122.806;2023-04-03T05:53:58;1.58;;;0.73;;
50853;SDS011;44154;45.506;-122.806;2023-04-03T05:56:31;1.58;;;0.65;;
50853;SDS011;44154;45.506;-122.806;2023-04-03T05:58:57;1.05;;;0.40;;
50853;SDS011;44154;45.506;-122.806;2023-04-03T06:01:23;1.50;;;0.70;;
50853;SDS011;44154;45.506;-122.806;2023-04-03T06:03:50;1.33;;;0.50;;
50853;SDS011;44154;45.506;-122.806;2023-04-03T06:06:16;0.90;;;0.60;;
50853;SDS011;44154;45.506;-122.806;2023-04-03T06:08:42;2.58;;;0.52;;
50853;SDS011;44154;45.506;-122.806;2023-04-03T06:11:08;1.08;;;0.65;;
50853;SDS011;44154;45.506;-122.806;2023-04-03T06:13:35;3.45;;;0.63;;
50853;SDS011;44154;45.506;-122.806;2023-04-03T06:16:02;2.38;;;0.55;;
50853;SDS011;44154;45.506;-122.806;2023-04-03T06:18:29;2.65;;;0.90;;
50853;SDS011;44154;45.506;-122.806;2023-04-03T06:20:55;1.17;;;0.68;;
50853;SDS011;44154;45.506;-122.806;2023-04-03T06:23:21;1.83;;;0.70;;
50853;SDS011;44154;45.506;-122.806;2023-04-03T06:25:47;1.80;;;0.65;;
50853;SDS011;44154;45.506;-122.806;2023-04-03T06:28:14;1.38;;;0.70;;
50853;SDS011;44154;45.506;-122.806;2023-04-03T06:30:40;1.08;;;0.60;;
50853;SDS011;44154;45.506;-122.806;2023-04-03T06:33:06;1.70;;;0.60;;
50853;SDS011;44154;45.506;-122.806;2023-04-03T06:35:32;2.15;;;0.70;;
50853;SDS011;44154;45.506;-122.806;2023-04-03T06:38:00;2.30;;;0.90;;
50853;SDS011;44154;45.506;-122.806;2023-04-03T06:40:26;1.15;;;0.70;;
50853;SDS011;44154;45.506;-122.806;2023-04-03T06:42:53;1.30;;;0.73;;
50853;SDS011;44154;45.506;-122.806;2023-04-03T06:45:19;2.28;;;0.85;;
50853;SDS011;44154;45.506;-122.806;2023-04-03T06:47:46;1.77;;;0.80;;
50853;SDS011;44154;45.506;-122.806;2023-04-03T06:50:13;1.73;;;0.88;;
50853;SDS011;44154;45.506;-122.806;2023-04-03T06:52:40;1.05;;;0.68;;
50853;SDS011;44154;45.506;-122.806;2023-04-03T06:55:06;1.60;;;0.80;;
50853;SDS011;44154;45.506;-122.806;2023-04-03T06:57:33;2.05;;;0.90;;
50853;SDS011;44154;45.506;-122.806;2023-04-03T06:59:59;2.28;;;1.10;;
50853;SDS011;44154;45.506;-122.806;2023-04-03T07:02:25;1.73;;;0.77;;
50853;SDS011;44154;45.506;-122.806;2023-04-03T07:04:52;2.10;;;0.60;;
50853;SDS011;44154;45.506;-122.806;2023-04-03T07:07:18;2.05;;;1.08;;
50853;SDS011;44154;45.506;-122.806;2023-04-03T07:09:44;1.85;;;1.00;;
50853;SDS011;44154;45.506;-122.806;2023-04-03T07:12:12;1.77;;;0.60;;
50853;SDS011;44154;45.506;-122.806;2023-04-03T07:14:38;1.38;;;0.70;;
50853;SDS011;44154;45.506;-122.806;2023-04-03T07:17:04;1.25;;;0.60;;
50853;SDS011;44154;45.506;-122.806;2023-04-03T07:19:30;1.40;;;0.50;;
50853;SDS011;44154;45.506;-122.806;2023-04-03T07:21:56;3.90;;;0.65;;
50853;SDS011;44154;45.506;-122.806;2023-04-03T07:24:23;1.40;;;0.68;;
50853;SDS011;44154;45.506;-122.806;2023-04-03T07:26:49;1.30;;;0.52;;
50853;SDS011;44154;45.506;-122.806;2023-04-03T07:29:17;1.95;;;0.70;;
50853;SDS011;44154;45.506;-122.806;2023-04-03T07:31:43;1.08;;;0.57;;
50853;SDS011;44154;45.506;-122.806;2023-04-03T07:34:10;1.52;;;0.80;;
50853;SDS011;44154;45.506;-122.806;2023-04-03T07:36:36;1.77;;;0.88;;
50853;SDS011;44154;45.506;-122.806;2023-04-03T07:39:03;1.75;;;0.70;;
50853;SDS011;44154;45.506;-122.806;2023-04-03T07:41:29;1.88;;;0.85;;
50853;SDS011;44154;45.506;-122.806;2023-04-03T07:43:55;1.20;;;0.75;;
50853;SDS011;44154;45.506;-122.806;2023-04-03T07:46:22;2.58;;;0.77;;
50853;SDS011;44154;45.506;-122.806;2023-04-03T07:48:49;1.33;;;0.73;;
50853;SDS011;44154;45.506;-122.806;2023-04-03T07:51:15;1.83;;;0.85;;
50853;SDS011;44154;45.506;-122.806;2023-04-03T07:53:41;1.70;;;0.73;;
50853;SDS011;44154;45.506;-122.806;2023-04-03T07:56:07;2.10;;;1.08;;
50853;SDS011;44154;45.506;-122.806;2023-04-03T07:58:35;1.85;;;0.80;;
50853;SDS011;44154;45.506;-122.806;2023-04-03T08:01:02;1.42;;;0.85;;
50853;SDS011;44154;45.506;-122.806;2023-04-03T08:03:28;1.10;;;0.57;;
50853;SDS011;44154;45.506;-122.806;2023-04-03T08:05:54;1.08;;;0.63;;
50853;SDS011;44154;45.506;-122.806;2023-04-03T08:08:28;1.00;;;0.60;;
50853;SDS011;44154;45.506;-122.806;2023-04-03T08:10:55;2.03;;;0.60;;
50853;SDS011;44154;45.506;-122.806;2023-04-03T08:13:25;3.28;;;0.70;;
50853;SDS011;44154;45.506;-122.806;2023-04-03T08:15:52;3.15;;;0.60;;
50853;SDS011;44154;45.506;-122.806;2023-04-03T08:18:18;1.70;;;0.70;;
50853;SDS011;44154;45.506;-122.806;2023-04-03T08:20:46;2.03;;;0.60;;
50853;SDS011;44154;45.506;-122.806;2023-04-03T08:23:13;2.63;;;0.90;;
50853;SDS011;44154;45.506;-122.806;2023-04-03T08:25:41;1.20;;;0.70;;
50853;SDS011;44154;45.506;-122.806;2023-04-03T08:28:07;0.90;;;0.60;;
50853;SDS011;44154;45.506;-122.806;2023-04-03T08:30:35;1.08;;;0.50;;
50853;SDS011;44154;45.506;-122.806;2023-04-03T08:33:01;0.60;;;0.40;;
50853;SDS011;44154;45.506;-122.806;2023-04-03T08:35:28;1.30;;;0.50;;
50853;SDS011;44154;45.506;-122.806;2023-04-03T08:37:54;2.00;;;0.80;;
50853;SDS011;44154;45.506;-122.806;2023-04-03T08:40:21;1.95;;;0.75;;
50853;SDS011;44154;45.506;-122.806;2023-04-03T08:51:17;1.77;;;0.73;;
50853;SDS011;44154;45.506;-122.806;2023-04-03T08:53:55;1.42;;;0.80;;
50853;SDS011;44154;45.506;-122.806;2023-04-03T08:56:28;1.87;;;0.83;;
50853;SDS011;44154;45.506;-122.806;2023-04-03T08:58:57;1.88;;;0.75;;
50853;SDS011;44154;45.506;-122.806;2023-04-03T09:01:33;1.38;;;0.70;;
50853;SDS011;44154;45.506;-122.806;2023-04-03T09:04:02;1.17;;;0.50;;
50853;SDS011;44154;45.506;-122.806;2023-04-03T09:06:34;1.40;;;0.65;;
50853;SDS011;44154;45.506;-122.806;2023-04-03T09:09:13;1.75;;;0.88;;
50853;SDS011;44154;45.506;-122.806;2023-04-03T09:11:57;2.08;;;0.60;;
50853;SDS011;44154;45.506;-122.806;2023-04-03T09:20:14;0.85;;;0.40;;
50853;SDS011;44154;45.506;-122.806;2023-04-03T09:22:45;1.95;;;0.50;;
50853;SDS011;44154;45.506;-122.806;2023-04-03T09:27:53;0.82;;;0.50;;
50853;SDS011;44154;45.506;-122.806;2023-04-03T09:30:23;1.67;;;0.60;;
50853;SDS011;44154;45.506;-122.806;2023-04-03T09:32:52;0.95;;;0.50;;
50853;SDS011;44154;45.506;-122.806;2023-04-03T09:35:29;1.17;;;0.50;;
50853;SDS011;44154;45.506;-122.806;2023-04-03T09:40:44;1.63;;;0.40;;
50853;SDS011;44154;45.506;-122.806;2023-04-03T09:43:26;1.33;;;0.55;;
50853;SDS011;44154;45.506;-122.806;2023-04-03T09:45:54;0.80;;;0.50;;
50853;SDS011;44154;45.506;-122.806;2023-04-03T09:48:25;1.00;;;0.40;;
50853;SDS011;44154;45.506;-122.806;2023-04-03T09:50:54;2.58;;;0.80;;
50853;SDS011;44154;45.506;-122.806;2023-04-03T09:53:37;1.95;;;0.70;;
50853;SDS011;44154;45.506;-122.806;2023-04-03T09:58:50;1.58;;;0.68;;
50853;SDS011;44154;45.506;-122.806;2023-04-03T10:01:33;1.40;;;0.40;;
50853;SDS011;44154;45.506;-122.806;2023-04-03T10:06:39;3.22;;;0.90;;
50853;SDS011;44154;45.506;-122.806;2023-04-03T10:09:16;2.03;;;0.57;;
50853;SDS011;44154;45.506;-122.806;2023-04-03T10:14:24;2.08;;;0.52;;
50853;SDS011;44154;45.506;-122.806;2023-04-03T10:16:56;2.53;;;0.70;;
50853;SDS011;44154;45.506;-122.806;2023-04-03T10:21:58;2.20;;;0.77;;
50853;SDS011;44154;45.506;-122.806;2023-04-03T10:24:35;2.42;;;0.70;;
50853;SDS011;44154;45.506;-122.806;2023-04-03T10:36:21;2.10;;;0.50;;
50853;SDS011;44154;45.506;-122.806;2023-04-03T10:47:06;1.10;;;0.40;;
50853;SDS011;44154;45.506;-122.806;2023-04-03T10:57:39;0.50;;;0.30;;
50853;SDS011;44154;45.506;-122.806;2023-04-03T11:00:09;1.23;;;0.32;;
50853;SDS011;44154;45.506;-122.806;2023-04-03T11:06:04;1.17;;;0.40;;
50853;SDS011;44154;45.506;-122.806;2023-04-03T11:08:24;0.88;;;0.40;;
50853;SDS011;44154;45.506;-122.806;2023-04-03T11:11:35;1.20;;;0.30;;
50853;SDS011;44154;45.506;-122.806;2023-04-03T11:14:16;0.90;;;0.47;;
50853;SDS011;44154;45.506;-122.806;2023-04-03T11:17:15;0.50;;;0.30;;
50853;SDS011;44154;45.506;-122.806;2023-04-03T11:22:41;0.45;;;0.30;;
50853;SDS011;44154;45.506;-122.806;2023-04-03T11:27:40;0.80;;;0.30;;
50853;SDS011;44154;45.506;-122.806;2023-04-03T11:30:33;0.75;;;0.32;;
50853;SDS011;44154;45.506;-122.806;2023-04-03T11:33:17;1.63;;;0.30;;
50853;SDS011;44154;45.506;-122.806;2023-04-03T11:36:07;0.82;;;0.28;;
50853;SDS011;44154;45.506;-122.806;2023-04-03T11:38:38;0.70;;;0.30;;
50853;SDS011;44154;45.506;-122.806;2023-04-03T11:41:09;0.30;;;0.20;;
50853;SDS011;44154;45.506;-122.806;2023-04-03T11:43:55;0.40;;;0.20;;
50853;SDS011;44154;45.506;-122.806;2023-04-03T11:46:58;0.28;;;0.20;;
50853;SDS011;44154;45.506;-122.806;2023-04-03T12:05:55;0.30;;;0.20;;
50853;SDS011;44154;45.506;-122.806;2023-04-03T12:11:50;0.75;;;0.30;;
50853;SDS011;44154;45.506;-122.806;2023-04-03T12:26:46;0.77;;;0.30;;
50853;SDS011;44154;45.506;-122.806;2023-04-03T12:34:50;0.50;;;0.20;;
50853;SDS011;44154;45.506;-122.806;2023-04-03T12:42:34;0.65;;;0.20;;
50853;SDS011;44154;45.506;-122.806;2023-04-03T12:45:24;0.38;;;0.15;;
50853;SDS011;44154;45.506;-122.806;2023-04-03T12:47:54;1.25;;;0.38;;
50853;SDS011;44154;45.506;-122.806;2023-04-03T12:50:26;0.30;;;0.10;;
50853;SDS011;44154;45.506;-122.806;2023-04-03T12:53:03;1.52;;;0.30;;
50853;SDS011;44154;45.506;-122.806;2023-04-03T12:55:32;0.60;;;0.20;;
50853;SDS011;44154;45.506;-122.806;2023-04-03T12:58:16;0.60;;;0.20;;
50853;SDS011;44154;45.506;-122.806;2023-04-03T13:00:57;0.40;;;0.20;;
50853;SDS011;44154;45.506;-122.806;2023-04-03T13:03:44;0.50;;;0.20;;
50853;SDS011;44154;45.506;-122.806;2023-04-03T13:06:18;0.63;;;0.20;;
50853;SDS011;44154;45.506;-122.806;2023-04-03T13:08:51;0.85;;;0.30;;
50853;SDS011;44154;45.506;-122.806;2023-04-03T13:11:25;0.60;;;0.20;;
50853;SDS011;44154;45.506;-122.806;2023-04-03T13:13:57;0.43;;;0.30;;
50853;SDS011;44154;45.506;-122.806;2023-04-03T13:19:43;0.68;;;0.20;;
50853;SDS011;44154;45.506;-122.806;2023-04-03T13:25:05;0.50;;;0.20;;
50853;SDS011;44154;45.506;-122.806;2023-04-03T13:27:34;0.28;;;0.20;;
50853;SDS011;44154;45.506;-122.806;2023-04-03T13:30:01;1.48;;;0.20;;
50853;SDS011;44154;45.506;-122.806;2023-04-03T13:32:29;0.30;;;0.20;;
50853;SDS011;44154;45.506;-122.806;2023-04-03T13:34:57;0.40;;;0.20;;
50853;SDS011;44154;45.506;-122.806;2023-04-03T13:37:31;1.48;;;0.20;;
50853;SDS011;44154;45.506;-122.806;2023-04-03T13:42:35;0.60;;;0.17;;
50853;SDS011;44154;45.506;-122.806;2023-04-03T13:45:23;0.60;;;0.30;;
50853;SDS011;44154;45.506;-122.806;2023-04-03T13:47:54;0.65;;;0.20;;
50853;SDS011;44154;45.506;-122.806;2023-04-03T13:50:41;0.85;;;0.20;;
50853;SDS011;44154;45.506;-122.806;2023-04-03T13:53:27;0.28;;;0.13;;
50853;SDS011;44154;45.506;-122.806;2023-04-03T13:56:08;0.30;;;0.10;;
50853;SDS011;44154;45.506;-122.806;2023-04-03T13:58:51;0.50;;;0.25;;
50853;SDS011;44154;45.506;-122.806;2023-04-03T14:01:23;0.22;;;0.15;;
50853;SDS011;44154;45.506;-122.806;2023-04-03T14:04:09;0.77;;;0.30;;
50853;SDS011;44154;45.506;-122.806;2023-04-03T14:06:41;0.43;;;0.20;;
50853;SDS011;44154;45.506;-122.806;2023-04-03T14:09:07;0.80;;;0.20;;
50853;SDS011;44154;45.506;-122.806;2023-04-03T14:11:33;0.45;;;0.20;;
50853;SDS011;44154;45.506;-122.806;2023-04-03T14:14:02;0.20;;;0.13;;
50853;SDS011;44154;45.506;-122.806;2023-04-03T14:16:37;0.30;;;0.20;;
50853;SDS011;44154;45.506;-122.806;2023-04-03T14:19:06;0.20;;;0.10;;
50853;SDS011;44154;45.506;-122.806;2023-04-03T14:21:32;0.30;;;0.13;;
50853;SDS011;44154;45.506;-122.806;2023-04-03T14:23:59;0.43;;;0.20;;
50853;SDS011;44154;45.506;-122.806;2023-04-03T14:26:25;1.25;;;0.30;;
50853;SDS011;44154;45.506;-122.806;2023-04-03T14:28:53;0.95;;;0.30;;
50853;SDS011;44154;45.506;-122.806;2023-04-03T14:31:23;1.92;;;0.30;;
50853;SDS011;44154;45.506;-122.806;2023-04-03T14:33:50;0.10;;;0.10;;
50853;SDS011;44154;45.506;-122.806;2023-04-03T14:36:23;0.98;;;0.20;;
50853;SDS011;44154;45.506;-122.806;2023-04-03T14:38:51;0.82;;;0.20;;
50853;SDS011;44154;45.506;-122.806;2023-04-03T14:41:19;1.77;;;0.20;;
50853;SDS011;44154;45.506;-122.806;2023-04-03T14:43:49;1.17;;;0.20;;
50853;SDS011;44154;45.506;-122.806;2023-04-03T14:46:29;0.75;;;0.30;;
50853;SDS011;44154;45.506;-122.806;2023-04-03T14:49:01;1.77;;;0.25;;
50853;SDS011;44154;45.506;-122.806;2023-04-03T14:51:33;2.03;;;0.30;;
50853;SDS011;44154;45.506;-122.806;2023-04-03T14:53:59;1.65;;;0.22;;
50853;SDS011;44154;45.506;-122.806;2023-04-03T14:56:27;3.15;;;0.50;;
50853;SDS011;44154;45.506;-122.806;2023-04-03T14:58:58;1.55;;;0.30;;
50853;SDS011;44154;45.506;-122.806;2023-04-03T15:01:26;2.83;;;0.38;;
50853;SDS011;44154;45.506;-122.806;2023-04-03T15:03:53;1.40;;;0.30;;
50853;SDS011;44154;45.506;-122.806;2023-04-03T15:06:20;1.33;;;0.20;;
50853;SDS011;44154;45.506;-122.806;2023-04-03T15:08:47;1.05;;;0.20;;
50853;SDS011;44154;45.506;-122.806;2023-04-03T15:11:14;1.48;;;0.22;;
50853;SDS011;44154;45.506;-122.806;2023-04-03T15:13:40;1.83;;;0.38;;
50853;SDS011;44154;45.506;-122.806;2023-04-03T15:16:12;1.45;;;0.20;;
50853;SDS011;44154;45.506;-122.806;2023-04-03T15:18:44;0.93;;;0.10;;
50853;SDS011;44154;45.506;-122.806;2023-04-03T15:21:12;1.00;;;0.15;;
50853;SDS011;44154;45.506;-122.806;2023-04-03T15:23:39;1.85;;;0.40;;
50853;SDS011;44154;45.506;-122.806;2023-04-03T15:26:05;1.85;;;0.20;;
50853;SDS011;44154;45.506;-122.806;2023-04-03T15:28:41;0.82;;;0.30;;
50853;SDS011;44154;45.506;-122.806;2023-04-03T15:31:09;4.97;;;0.35;;
50853;SDS011;44154;45.506;-122.806;2023-04-03T15:33:36;0.73;;;0.10;;
50853;SDS011;44154;45.506;-122.806;2023-04-03T15:36:03;1.15;;;0.30;;
50853;SDS011;44154;45.506;-122.806;2023-04-03T15:38:29;0.38;;;0.10;;
50853;SDS011;44154;45.506;-122.806;2023-04-03T15:40:55;1.10;;;0.10;;
50853;SDS011;44154;45.506;-122.806;2023-04-03T15:43:22;1.15;;;0.20;;
50853;SDS011;44154;45.506;-122.806;2023-04-03T15:45:48;1.10;;;0.20;;
50853;SDS011;44154;45.506;-122.806;2023-04-03T15:48:16;0.10;;;0.10;;
50853;SDS011;44154;45.506;-122.806;2023-04-03T15:50:43;1.50;;;0.30;;
50853;SDS011;44154;45.506;-122.806;2023-04-03T15:53:09;1.13;;;0.20;;
50853;SDS011;44154;45.506;-122.806;2023-04-03T15:55:36;1.48;;;0.15;;
50853;SDS011;44154;45.506;-122.806;2023-04-03T15:58:03;0.20;;;0.20;;
50853;SDS011;44154;45.506;-122.806;2023-04-03T16:00:29;2.63;;;0.20;;
50853;SDS011;44154;45.506;-122.806;2023-04-03T16:03:01;0.50;;;0.17;;
50853;SDS011;44154;45.506;-122.806;2023-04-03T16:05:31;1.83;;;0.30;;
50853;SDS011;44154;45.506;-122.806;2023-04-03T16:07:59;0.70;;;0.10;;
50853;SDS011;44154;45.506;-122.806;2023-04-03T16:10:26;0.93;;;0.30;;
50853;SDS011;44154;45.506;-122.806;2023-04-03T16:12:53;0.82;;;0.10;;
50853;SDS011;44154;45.506;-122.806;2023-04-03T16:15:19;0.50;;;0.25;;
50853;SDS011;44154;45.506;-122.806;2023-04-03T16:17:45;1.70;;;0.30;;
50853;SDS011;44154;45.506;-122.806;2023-04-03T16:20:13;1.00;;;0.20;;
50853;SDS011;44154;45.506;-122.806;2023-04-03T16:22:40;0.98;;;0.20;;
50853;SDS011;44154;45.506;-122.806;2023-04-03T16:25:07;0.98;;;0.20;;